Aviation Digital Data Service (ADDS)

Output produced by METARs form (0120 UTC 16 January 2019)
found at http://www.aviationweather.gov/metar/data/
 
VVDN 160100Z VRB01KT 4000 -RA BR FEW007 SCT013 BKN050 22/21 Q1018 TEMPO 2500 RA BR
TAF VVDN 152300Z 1600/1624 07006KT 6000 SCT013 BKN050 
     TEMPO 1600/1608 3500 RA BR 
     TEMPO 1618/1624 3000 RA BR
       
VVNB 160100Z 02008KT 9999 BKN032 14/09 Q1022 NOSIG
TAF VVNB 152300Z 1600/1624 03010KT 9999 SCT020 BKN040 
     TEMPO 1600/1604 4500 -RA BR SCT010 BKN040 
     TEMPO 1612/1616 4500 -RA BR SCT008 BKN040
       
VVTS 160100Z 35006KT 300V040 9999 FEW017 SCT050 27/22 Q1012 NOSIG
TAF VVTS 152300Z 1600/1706 06010KT 9999 SCT015 BKN050 
     TEMPO 1608/1613 5000 SHRA BKN015 FEW017CB BKN040